createdAt,value
2018-02-11T00:00:30.068Z,100493.81
2018-02-11T00:02:58.764Z,100494.56
2018-02-11T00:05:27.439Z,100485.08
2018-02-11T00:07:56.133Z,100477.19
2018-02-11T00:10:24.717Z,100474.25
2018-02-11T00:12:53.525Z,100477.28
2018-02-11T00:15:22.486Z,100472.89
2018-02-11T00:17:51.741Z,100473.52
2018-02-11T00:20:20.360Z,100473.52
2018-02-11T00:22:48.976Z,100471.81
2018-02-11T00:25:17.648Z,100462.16
2018-02-11T00:27:46.474Z,100464.40
2018-02-11T00:30:15.226Z,100464.91
2018-02-11T00:32:43.807Z,100459.76
2018-02-11T00:35:12.477Z,100451.29
2018-02-11T00:37:46.850Z,100453.48
2018-02-11T00:40:15.885Z,100454.37
2018-02-11T00:42:44.487Z,100448.06
2018-02-11T00:45:13.089Z,100451.34
2018-02-11T00:47:41.808Z,100445.23
2018-02-11T00:50:11.057Z,100441.25
2018-02-11T00:52:39.743Z,100432.02
2018-02-11T00:55:08.429Z,100433.75
2018-02-11T00:57:37.218Z,100426.80
2018-02-11T01:00:06.007Z,100422.63
2018-02-11T01:02:34.528Z,100427.89
2018-02-11T01:05:03.227Z,100418.92
2018-02-11T01:07:31.963Z,100409.97
2018-02-11T01:10:00.550Z,100406.31
2018-02-11T01:12:29.149Z,100409.61
2018-02-11T01:14:57.832Z,100398.10
2018-02-11T01:17:26.494Z,100405.44
2018-02-11T01:19:55.182Z,100400.59
2018-02-11T01:22:23.776Z,100393.55
2018-02-11T01:24:52.458Z,100394.42
2018-02-11T01:27:21.252Z,100385.50
2018-02-11T01:29:50.178Z,100394.22
2018-02-11T01:32:18.811Z,100385.84
2018-02-11T01:34:48.279Z,100381.16
2018-02-11T01:37:16.948Z,100373.50
2018-02-11T01:39:46.009Z,100369.57
2018-02-11T01:42:14.670Z,100367.91
2018-02-11T01:44:43.176Z,100362.08
2018-02-11T01:47:11.913Z,100362.18
2018-02-11T01:49:40.567Z,100351.27
2018-02-11T01:52:09.232Z,100354.14
2018-02-11T01:54:37.930Z,100354.45
2018-02-11T01:57:06.611Z,100347.95
2018-02-11T01:59:35.229Z,100347.61
2018-02-11T02:02:04.401Z,100345.09
2018-02-11T02:04:33.010Z,100336.41
2018-02-11T02:07:02.339Z,100339.08
2018-02-11T02:09:31.082Z,100334.31
2018-02-11T02:11:59.861Z,100322.23
2018-02-11T02:14:28.532Z,100320.31
2018-02-11T02:16:57.134Z,100315.50
2018-02-11T02:19:25.926Z,100315.23
2018-02-11T02:21:54.500Z,100314.12
2018-02-11T02:24:23.380Z,100304.02
2018-02-11T02:26:52.379Z,100301.80
2018-02-11T02:29:21.244Z,100296.97
2018-02-11T02:31:49.976Z,100297.92
2018-02-11T02:34:18.749Z,100293.50
2018-02-11T02:36:47.639Z,100282.39
2018-02-11T02:39:16.325Z,100279.12
2018-02-11T02:41:45.105Z,100273.02
2018-02-11T02:44:13.825Z,100274.36
2018-02-11T02:46:42.580Z,100266.16
2018-02-11T02:49:11.299Z,100269.61
2018-02-11T02:51:40.089Z,100260.61
2018-02-11T02:54:08.972Z,100248.05
2018-02-11T02:56:38.147Z,100245.16
2018-02-11T02:59:07.099Z,100241.81
2018-02-11T03:01:35.738Z,100245.99
2018-02-11T03:04:04.609Z,100244.60
2018-02-11T03:06:33.320Z,100235.69
2018-02-11T03:09:02.191Z,100231.87
2018-02-11T03:11:30.854Z,100229.06
2018-02-11T03:13:59.573Z,100235.09
2018-02-11T03:16:28.309Z,100234.98
2018-02-11T03:18:57.340Z,100222.16
2018-02-11T03:21:26.135Z,100228.70
2018-02-11T03:23:54.766Z,100223.25
2018-02-11T03:26:23.942Z,100217.00
2018-02-11T03:28:52.705Z,100215.59
2018-02-11T03:31:21.342Z,100211.40
2018-02-11T03:33:50.079Z,100205.54
2018-02-11T03:36:18.700Z,100200.26
2018-02-11T03:38:47.412Z,100195.44
2018-02-11T03:41:16.131Z,100192.13
2018-02-11T03:43:44.846Z,100188.09
2018-02-11T03:46:14.956Z,100180.31
2018-02-11T03:48:43.646Z,100178.95
2018-02-11T03:51:12.273Z,100172.19
2018-02-11T03:53:41.809Z,100166.22
2018-02-11T03:56:10.502Z,100157.36
2018-02-11T03:58:39.178Z,100156.73
2018-02-11T04:01:08.584Z,100152.44
2018-02-11T04:03:37.285Z,100153.63
2018-02-11T04:06:05.962Z,100150.31
2018-02-11T04:08:34.560Z,100146.84
2018-02-11T04:11:03.126Z,100146.08
2018-02-11T04:13:31.811Z,100140.77
2018-02-11T04:16:00.642Z,100137.47
2018-02-11T04:18:29.291Z,100129.78
2018-02-11T04:20:58.073Z,100133.26
2018-02-11T04:23:26.601Z,100126.50
2018-02-11T04:25:55.205Z,100126.09
2018-02-11T04:28:23.876Z,100125.78
2018-02-11T04:30:52.716Z,100127.02
2018-02-11T04:33:21.137Z,100128.73
2018-02-11T04:35:50.074Z,100118.47
2018-02-11T04:38:18.542Z,100117.12
2018-02-11T04:40:47.127Z,100117.44
2018-02-11T04:43:15.883Z,100112.37
2018-02-11T04:45:44.363Z,100114.47
2018-02-11T04:48:12.848Z,100109.58
2018-02-11T04:50:41.247Z,100112.18
2018-02-11T04:53:10.029Z,100112.02
2018-02-11T04:55:38.417Z,100105.08
2018-02-11T04:58:07.181Z,100098.58
2018-02-11T05:00:35.644Z,100091.44
2018-02-11T05:03:04.145Z,100090.64
2018-02-11T05:05:32.640Z,100087.94
2018-02-11T05:08:01.402Z,100080.11
2018-02-11T05:10:29.784Z,100073.38
2018-02-11T05:12:58.176Z,100077.08
2018-02-11T05:15:26.989Z,100064.39
2018-02-11T05:17:55.363Z,100066.51
2018-02-11T05:20:24.216Z,100060.19
2018-02-11T05:22:52.766Z,100051.73
2018-02-11T05:25:21.157Z,100050.05
2018-02-11T05:27:49.538Z,100049.38
2018-02-11T05:30:17.946Z,100053.83
2018-02-11T05:32:46.359Z,100040.98
2018-02-11T05:35:14.758Z,100037.97
2018-02-11T05:37:43.546Z,100031.02
2018-02-11T05:40:11.920Z,100020.59
2018-02-11T05:42:41.162Z,100015.75
2018-02-11T05:45:09.553Z,100015.77
2018-02-11T05:47:37.955Z,100009.20
2018-02-11T05:50:06.819Z,100002.29
2018-02-11T05:52:36.124Z,100006.58
2018-02-11T05:55:04.510Z,100004.50
2018-02-11T05:57:32.890Z,100002.63
2018-02-11T06:00:01.267Z,99995.89
2018-02-11T06:02:29.689Z,99991.56
2018-02-11T06:04:58.069Z,99992.54
2018-02-11T06:07:26.454Z,99993.27
2018-02-11T06:09:54.827Z,99998.61
2018-02-11T06:12:23.241Z,99987.66
2018-02-11T06:14:51.607Z,99980.71
2018-02-11T06:17:20.069Z,99976.49
2018-02-11T06:19:48.508Z,99981.92
2018-02-11T06:22:16.876Z,99980.80
2018-02-11T06:24:45.255Z,99967.23
2018-02-11T06:27:13.629Z,99969.78
2018-02-11T06:29:41.997Z,99966.66
2018-02-11T06:32:10.388Z,99969.61
2018-02-11T06:34:38.743Z,99965.94
2018-02-11T06:37:07.120Z,99964.88
2018-02-11T06:39:35.481Z,99963.73
2018-02-11T06:42:03.870Z,99953.63
2018-02-11T06:44:32.251Z,99951.44
2018-02-11T06:47:00.660Z,99945.37
2018-02-11T06:49:29.029Z,99949.88
2018-02-11T06:51:57.435Z,99939.30
2018-02-11T06:54:25.840Z,99931.87
2018-02-11T06:56:54.250Z,99930.69
2018-02-11T06:59:22.660Z,99931.53
2018-02-11T07:01:51.147Z,99931.35
2018-02-11T07:04:19.510Z,99933.48
2018-02-11T07:06:47.908Z,99927.69
2018-02-11T07:09:16.663Z,99927.58
2018-02-11T07:11:45.055Z,99920.81
2018-02-11T07:14:13.426Z,99913.27
2018-02-11T07:16:42.103Z,99921.69
2018-02-11T07:19:10.470Z,99921.13
2018-02-11T07:21:38.849Z,99918.97
2018-02-11T07:24:07.227Z,99905.99
2018-02-11T07:26:35.674Z,99911.29
2018-02-11T07:29:04.483Z,99913.30
2018-02-11T07:31:32.879Z,99907.03
2018-02-11T07:34:01.242Z,99909.91
2018-02-11T07:36:29.613Z,99896.95
2018-02-11T07:38:57.972Z,99884.94
2018-02-11T07:41:26.869Z,99881.83
2018-02-11T07:43:55.648Z,99878.16
2018-02-11T07:46:24.422Z,99886.47
2018-02-11T07:48:52.817Z,99877.83
2018-02-11T07:51:21.648Z,99870.73
2018-02-11T07:53:50.041Z,99870.24
2018-02-11T07:56:18.420Z,99869.95
2018-02-11T07:58:46.923Z,99864.50
2018-02-11T08:01:15.337Z,99854.11
2018-02-11T08:03:44.516Z,99854.45
2018-02-11T08:06:14.865Z,99848.27
2018-02-11T08:08:44.717Z,99843.16
2018-02-11T08:11:15.207Z,99840.53
2018-02-11T08:13:45.135Z,99841.84
2018-02-11T08:16:15.005Z,99834.37
2018-02-11T08:18:44.632Z,99827.22
2018-02-11T08:21:13.456Z,99825.16
2018-02-11T08:23:41.822Z,99831.72
2018-02-11T08:26:10.208Z,99821.86
2018-02-11T08:28:38.587Z,99803.67
2018-02-11T08:31:06.969Z,99807.14
2018-02-11T08:33:35.346Z,99799.33
2018-02-11T08:36:03.737Z,99798.78
2018-02-11T08:38:32.092Z,99794.94
2018-02-11T08:41:00.539Z,99785.41
2018-02-11T08:43:28.921Z,99783.66
2018-02-11T08:45:57.730Z,99785.27
2018-02-11T08:48:26.805Z,99773.97
2018-02-11T08:50:58.676Z,99761.00
2018-02-11T08:53:27.805Z,99751.30
2018-02-11T08:55:58.477Z,99754.12
2018-02-11T08:58:29.180Z,99752.11
2018-02-11T09:00:59.808Z,99755.02
2018-02-11T09:03:28.409Z,99744.99
2018-02-11T09:05:58.224Z,99746.73
2018-02-11T09:08:26.678Z,99735.47
2018-02-11T09:10:57.131Z,99739.31
2018-02-11T09:13:26.030Z,99741.05
2018-02-11T09:15:56.366Z,99725.88
2018-02-11T09:18:25.989Z,99716.77
2018-02-11T09:20:56.355Z,99712.02
2018-02-11T09:23:25.376Z,99710.67
2018-02-11T09:25:55.940Z,99708.36
2018-02-11T09:28:26.372Z,99698.28
2018-02-11T09:30:55.656Z,99699.52
2018-02-11T09:33:25.619Z,99694.08
2018-02-11T09:35:54.081Z,99698.84
2018-02-11T09:38:24.695Z,99672.19
2018-02-11T09:40:53.796Z,99670.52
2018-02-11T09:43:23.089Z,99674.95
2018-02-11T09:45:53.820Z,99664.95
2018-02-11T09:48:24.377Z,99657.23
2018-02-11T09:50:54.360Z,99662.90
2018-02-11T09:53:23.136Z,99652.25
2018-02-11T09:55:51.551Z,99645.22
2018-02-11T09:58:19.989Z,99645.81
2018-02-11T10:00:48.415Z,99643.70
2018-02-11T10:03:17.198Z,99640.78
2018-02-11T10:05:45.961Z,99630.28
2018-02-11T10:08:14.389Z,99636.46
2018-02-11T10:10:42.792Z,99625.20
2018-02-11T10:13:11.254Z,99624.27
2018-02-11T10:15:39.615Z,99619.86
2018-02-11T10:18:08.221Z,99624.24
2018-02-11T10:20:36.585Z,99617.20
2018-02-11T10:23:04.944Z,99618.50
2018-02-11T10:25:33.786Z,99606.29
2018-02-11T10:28:02.144Z,99595.21
2018-02-11T10:30:30.517Z,99594.90
2018-02-11T10:32:58.869Z,99590.80
2018-02-11T10:35:27.645Z,99593.90
2018-02-11T10:37:56.009Z,99586.16
2018-02-11T10:40:24.404Z,99583.77
2018-02-11T10:42:53.177Z,99579.77
2018-02-11T10:45:21.608Z,99592.03
2018-02-11T10:47:50.017Z,99583.55
2018-02-11T10:50:18.405Z,99571.89
2018-02-11T10:52:46.764Z,99561.34
2018-02-11T10:55:15.127Z,99564.31
2018-02-11T10:57:43.477Z,99567.09
2018-02-11T11:00:12.252Z,99559.68
2018-02-11T11:02:40.630Z,99561.78
2018-02-11T11:05:09.090Z,99566.14
2018-02-11T11:07:37.499Z,99559.17
2018-02-11T11:10:06.267Z,99560.38
2018-02-11T11:12:34.623Z,99558.09
2018-02-11T11:15:02.979Z,99570.76
2018-02-11T11:17:31.341Z,99565.28
2018-02-11T11:19:59.727Z,99565.28
2018-02-11T11:22:28.088Z,99562.61
2018-02-11T11:24:56.848Z,99554.01
2018-02-11T11:27:25.246Z,99561.77
2018-02-11T11:29:53.995Z,99554.02
2018-02-11T11:32:22.363Z,99551.31
2018-02-11T11:34:50.713Z,99548.22
2018-02-11T11:37:19.085Z,99548.38
2018-02-11T11:39:47.442Z,99542.20
2018-02-11T11:42:16.220Z,99527.94
2018-02-11T11:44:45.020Z,99534.06
2018-02-11T11:47:13.394Z,99529.35
2018-02-11T11:49:41.828Z,99519.84
2018-02-11T11:52:10.190Z,99521.16
2018-02-11T11:54:38.570Z,99519.10
2018-02-11T11:57:06.941Z,99524.20
2018-02-11T11:59:35.301Z,99515.16
2018-02-11T12:02:04.083Z,99511.85
2018-02-11T12:04:32.847Z,99513.16
2018-02-11T12:07:01.215Z,99519.80
2018-02-11T12:09:29.574Z,99518.41
2018-02-11T12:11:57.928Z,99499.63
2018-02-11T12:14:26.275Z,99519.26
2018-02-11T12:16:54.637Z,99509.62
2018-02-11T12:19:22.995Z,99509.12
2018-02-11T12:24:49.766Z,99501.80
2018-02-11T12:27:18.129Z,99510.14
2018-02-11T12:29:46.492Z,99503.09
2018-02-11T12:32:15.658Z,99497.55
2018-02-11T12:34:44.387Z,99486.30
2018-02-11T12:37:12.743Z,99490.28
2018-02-11T12:39:41.088Z,99499.38
2018-02-11T12:42:09.552Z,99498.50
2018-02-11T12:44:37.900Z,99492.00
2018-02-11T12:47:06.262Z,99489.41
2018-02-11T12:49:34.602Z,99487.69
2018-02-11T12:52:02.964Z,99483.76
2018-02-11T12:54:31.300Z,99491.56
2018-02-11T12:56:59.669Z,99485.48
2018-02-11T12:59:28.015Z,99492.00
2018-02-11T13:01:56.459Z,99488.91
2018-02-11T13:04:24.833Z,99488.08
2018-02-11T13:06:53.183Z,99480.73
2018-02-11T13:09:21.527Z,99479.44
2018-02-11T13:11:49.890Z,99477.25
2018-02-11T13:14:18.235Z,99470.33
2018-02-11T13:16:48.284Z,99470.72
2018-02-11T13:19:16.637Z,99468.95
2018-02-11T13:21:44.986Z,99467.72
2018-02-11T13:24:13.335Z,99474.66
2018-02-11T13:26:41.675Z,99468.16
2018-02-11T13:29:10.369Z,99458.98
2018-02-11T13:31:38.757Z,99462.91
2018-02-11T13:34:07.109Z,99464.59
2018-02-11T13:36:36.136Z,99454.19
2018-02-11T13:39:04.507Z,99456.38
2018-02-11T13:41:33.356Z,99461.14
2018-02-11T13:44:01.875Z,99457.70
2018-02-11T13:46:31.766Z,99458.55
2018-02-11T13:49:00.419Z,99448.52
2018-02-11T13:51:29.427Z,99463.32
2018-02-11T13:53:58.261Z,99456.83
2018-02-11T13:56:27.560Z,99453.00
2018-02-11T13:58:56.288Z,99448.59
2018-02-11T14:01:25.247Z,99450.38
2018-02-11T14:03:54.132Z,99451.63
2018-02-11T14:06:22.801Z,99455.08
2018-02-11T14:08:51.993Z,99443.78
2018-02-11T14:11:20.907Z,99446.41
2018-02-11T14:13:50.802Z,99442.89
2018-02-11T14:16:19.603Z,99445.99
2018-02-11T14:18:48.501Z,99436.09
2018-02-11T14:21:17.318Z,99443.80
2018-02-11T14:23:46.643Z,99440.17
2018-02-11T14:26:15.396Z,99438.16
2018-02-11T14:28:45.218Z,99441.26
2018-02-11T14:31:15.277Z,99436.95
2018-02-11T14:33:44.582Z,99442.52
2018-02-11T14:36:12.995Z,99437.22
2018-02-11T14:38:41.352Z,99439.79
2018-02-11T14:41:09.705Z,99435.45
2018-02-11T14:43:38.189Z,99441.52
2018-02-11T14:46:06.543Z,99434.63
2018-02-11T14:48:35.279Z,99435.48
2018-02-11T14:51:03.633Z,99425.59
2018-02-11T14:53:31.989Z,99424.28
2018-02-11T14:56:00.797Z,99445.11
2018-02-11T14:58:29.148Z,99430.45
2018-02-11T15:00:57.905Z,99431.66
2018-02-11T15:03:26.253Z,99428.45
2018-02-11T15:05:55.042Z,99427.52
2018-02-11T15:08:23.401Z,99420.66
2018-02-11T15:10:51.791Z,99423.41
2018-02-11T15:13:20.388Z,99424.68
2018-02-11T15:15:48.754Z,99421.97
2018-02-11T15:18:17.116Z,99421.65
2018-02-11T15:20:46.578Z,99425.16
2018-02-11T15:23:15.254Z,99429.48
2018-02-11T15:25:43.633Z,99416.52
2018-02-11T15:28:13.513Z,99421.27
2018-02-11T15:30:42.229Z,99423.90
2018-02-11T15:33:10.637Z,99426.45
2018-02-11T15:35:40.493Z,99422.95
2018-02-11T15:38:08.937Z,99420.84
2018-02-11T15:40:38.525Z,99415.62
2018-02-11T15:43:07.407Z,99422.61
2018-02-11T15:45:37.225Z,99423.52
2018-02-11T15:48:06.088Z,99412.64
2018-02-11T15:50:35.074Z,99414.80
2018-02-11T15:53:04.303Z,99417.39
2018-02-11T15:55:32.673Z,99422.19
2018-02-11T15:58:01.033Z,99419.53
2018-02-11T16:00:29.419Z,99422.14
2018-02-11T16:02:57.772Z,99423.89
2018-02-11T16:05:26.118Z,99417.41
2018-02-11T16:07:54.460Z,99429.93
2018-02-11T16:10:22.841Z,99422.59
2018-02-11T16:12:51.191Z,99424.33
2018-02-11T16:15:19.543Z,99420.90
2018-02-11T16:17:48.311Z,99423.48
2018-02-11T16:20:16.695Z,99421.73
2018-02-11T16:22:45.059Z,99421.33
2018-02-11T16:25:13.419Z,99410.91
2018-02-11T16:27:41.789Z,99420.00
2018-02-11T16:30:10.163Z,99422.65
2018-02-11T16:32:42.223Z,99429.56
2018-02-11T16:35:06.923Z,99418.75
2018-02-11T16:37:35.299Z,99421.34
2018-02-11T16:40:03.657Z,99426.98
2018-02-11T16:42:32.068Z,99424.39
2018-02-11T16:45:00.446Z,99433.84
2018-02-11T16:47:28.825Z,99442.11
2018-02-11T16:49:57.188Z,99438.23
2018-02-11T16:52:25.582Z,99437.36
2018-02-11T16:54:53.989Z,99434.33
2018-02-11T16:57:22.348Z,99439.91
2018-02-11T16:59:50.717Z,99439.51
2018-02-11T17:02:19.082Z,99432.97
2018-02-11T17:04:47.427Z,99437.77
2018-02-11T17:07:16.200Z,99435.17
2018-02-11T17:09:44.549Z,99446.02
2018-02-11T17:12:14.012Z,99433.80
2018-02-11T17:14:42.751Z,99439.94
2018-02-11T17:17:11.121Z,99450.38
2018-02-11T17:19:39.478Z,99444.71
2018-02-11T17:22:08.054Z,99441.64
2018-02-11T17:24:36.419Z,99441.20
2018-02-11T17:27:04.828Z,99445.11
2018-02-11T17:29:33.187Z,99450.32
2018-02-11T17:32:01.620Z,99455.53
2018-02-11T17:34:29.963Z,99451.25
2018-02-11T17:36:58.343Z,99448.20
2018-02-11T17:39:26.720Z,99445.58
2018-02-11T17:41:55.086Z,99446.48
2018-02-11T17:44:23.445Z,99452.05
2018-02-11T17:46:52.407Z,99453.84
2018-02-11T17:49:21.187Z,99453.42
2018-02-11T17:51:49.627Z,99465.13
2018-02-11T17:54:17.991Z,99463.39
2018-02-11T17:56:46.414Z,99472.05
2018-02-11T17:59:14.757Z,99472.06
2018-02-11T18:01:43.119Z,99467.30
2018-02-11T18:04:11.877Z,99470.33
2018-02-11T18:06:40.278Z,99470.30
2018-02-11T18:09:09.060Z,99474.67
2018-02-11T18:11:37.416Z,99472.49
2018-02-11T18:14:05.781Z,99475.52
2018-02-11T18:16:34.159Z,99484.19
2018-02-11T18:19:02.517Z,99478.95
2018-02-11T18:21:30.885Z,99479.86
2018-02-11T18:23:59.747Z,99473.33
2018-02-11T18:26:28.503Z,99470.33
2018-02-11T18:28:56.879Z,99478.98
2018-02-11T18:31:25.248Z,99482.47
2018-02-11T18:33:53.606Z,99483.34
2018-02-11T18:36:22.026Z,99475.53
2018-02-11T18:38:50.467Z,99482.01
2018-02-11T18:41:18.838Z,99482.02
2018-02-11T18:43:47.214Z,99481.17
2018-02-11T18:46:15.576Z,99477.24
2018-02-11T18:48:44.319Z,99480.69
2018-02-11T18:51:12.689Z,99479.00
2018-02-11T18:53:41.033Z,99485.93
2018-02-11T18:56:09.379Z,99483.75
2018-02-11T18:58:37.734Z,99492.88
2018-02-11T19:01:06.087Z,99492.44
2018-02-11T19:03:34.446Z,99485.05
2018-02-11T19:06:02.838Z,99486.81
2018-02-11T19:08:31.191Z,99489.39
2018-02-11T19:10:59.946Z,99487.23
2018-02-11T19:13:28.296Z,99490.29
2018-02-11T19:15:56.652Z,99488.09
2018-02-11T19:18:25.015Z,99482.47
2018-02-11T19:20:53.797Z,99488.98
2018-02-11T19:23:22.527Z,99489.41
2018-02-11T19:25:50.892Z,99489.83
2018-02-11T19:28:19.254Z,99488.52
2018-02-11T19:30:47.632Z,99496.75
2018-02-11T19:33:16.016Z,99501.11
2018-02-11T19:35:44.380Z,99500.64
2018-02-11T19:38:13.139Z,99508.48
2018-02-11T19:40:41.513Z,99502.82
2018-02-11T19:43:09.867Z,99507.13
2018-02-11T19:45:38.256Z,99507.59
2018-02-11T19:48:06.624Z,99508.02
2018-02-11T19:50:34.995Z,99514.98
2018-02-11T19:53:03.348Z,99511.08
2018-02-11T19:55:31.713Z,99508.05
2018-02-11T19:58:00.447Z,99514.53
2018-02-11T20:00:28.814Z,99518.03
2018-02-11T20:02:57.245Z,99518.03
2018-02-11T20:05:25.590Z,99525.41
2018-02-11T20:07:53.962Z,99523.19
2018-02-11T20:10:22.352Z,99518.45
2018-02-11T20:12:50.729Z,99525.83
2018-02-11T20:15:19.107Z,99532.78
2018-02-11T20:17:47.453Z,99537.08
2018-02-11T20:20:15.830Z,99531.47
2018-02-11T20:22:44.178Z,99533.64
2018-02-11T20:25:12.539Z,99534.51
2018-02-11T20:27:40.908Z,99536.66
2018-02-11T20:30:09.265Z,99546.64
2018-02-11T20:32:37.618Z,99547.08
2018-02-11T20:35:05.987Z,99548.38
2018-02-11T20:37:34.747Z,99545.34
2018-02-11T20:40:03.124Z,99553.59
2018-02-11T20:42:31.501Z,99552.23
2018-02-11T20:44:59.863Z,99551.84
2018-02-11T20:47:28.218Z,99550.99
2018-02-11T20:49:56.599Z,99559.67
2018-02-11T20:52:24.991Z,99553.17
2018-02-11T20:54:53.340Z,99557.48
2018-02-11T20:57:21.700Z,99557.92
2018-02-11T20:59:50.468Z,99557.05
2018-02-11T21:02:18.825Z,99556.63
2018-02-11T21:04:47.216Z,99564.40
2018-02-11T21:07:15.638Z,99566.17
2018-02-11T21:09:43.992Z,99559.19
2018-02-11T21:12:12.744Z,99565.72
2018-02-11T21:14:41.104Z,99561.35
2018-02-11T21:17:09.470Z,99571.78
2018-02-11T21:19:37.845Z,99567.43
2018-02-11T21:22:06.216Z,99570.44
2018-02-11T21:24:34.585Z,99568.70
2018-02-11T21:27:03.344Z,99566.47
2018-02-11T21:29:31.696Z,99582.82
2018-02-11T21:32:00.064Z,99581.59
2018-02-11T21:34:28.488Z,99579.41
2018-02-11T21:36:57.260Z,99583.75
2018-02-11T21:39:25.658Z,99581.91
2018-02-11T21:41:54.281Z,99584.63
2018-02-11T21:44:22.635Z,99579.88
2018-02-11T21:46:51.395Z,99587.96
2018-02-11T21:49:19.856Z,99594.11
2018-02-11T21:51:48.240Z,99594.57
2018-02-11T21:54:16.611Z,99598.48
2018-02-11T21:56:45.033Z,99594.13
2018-02-11T21:59:13.882Z,99599.73
2018-02-11T22:01:42.253Z,99608.00
2018-02-11T22:04:11.155Z,99605.11
2018-02-11T22:06:39.506Z,99608.58
2018-02-11T22:09:07.860Z,99606.45
2018-02-11T22:11:36.611Z,99614.69
2018-02-11T22:14:05.002Z,99627.66
2018-02-11T22:16:33.377Z,99620.23
2018-02-11T22:19:01.785Z,99630.92
2018-02-11T22:21:30.130Z,99625.63
2018-02-11T22:23:58.550Z,99630.89
2018-02-11T22:26:26.981Z,99633.84
2018-02-11T22:28:55.331Z,99635.09
2018-02-11T22:31:23.744Z,99639.12
2018-02-11T22:33:52.144Z,99639.57
2018-02-11T22:36:20.505Z,99650.36
2018-02-11T22:38:48.856Z,99646.84
2018-02-11T22:41:17.234Z,99652.09
2018-02-11T22:43:45.614Z,99652.09
2018-02-11T22:46:13.983Z,99655.20
2018-02-11T22:48:42.371Z,99652.61
2018-02-11T22:51:10.768Z,99648.34
2018-02-11T22:53:39.193Z,99651.33
2018-02-11T22:56:07.943Z,99649.11
2018-02-11T22:58:36.282Z,99659.98
2018-02-11T23:01:04.676Z,99657.41
2018-02-11T23:03:33.076Z,99661.36
2018-02-11T23:06:01.439Z,99658.09
2018-02-11T23:08:29.786Z,99661.66
2018-02-11T23:10:58.169Z,99662.06
2018-02-11T23:13:26.555Z,99676.68
2018-02-11T23:15:54.911Z,99671.93
2018-02-11T23:18:23.759Z,99676.30
2018-02-11T23:20:52.151Z,99673.05
2018-02-11T23:23:20.524Z,99680.09
2018-02-11T23:25:48.891Z,99680.41
2018-02-11T23:28:17.244Z,99674.01
2018-02-11T23:30:45.624Z,99685.80
2018-02-11T23:33:13.977Z,99686.97
2018-02-11T23:35:42.685Z,99686.47
2018-02-11T23:38:11.266Z,99698.94
2018-02-11T23:40:40.150Z,99693.77
2018-02-11T23:43:08.745Z,99692.53
2018-02-11T23:45:37.447Z,99703.66
2018-02-11T23:48:06.081Z,99703.52
2018-02-11T23:50:34.863Z,99702.61
2018-02-11T23:53:04.476Z,99710.42
2018-02-11T23:55:33.169Z,99715.47
2018-02-11T23:58:01.765Z,99722.07
